sensor_id;sensor_type;location;lat;lon;timestamp;P1;durP1;ratioP1;P2;durP2;ratioP2
11982;SDS011;72623;51.184;7.176;2024-03-08T00:01:41;15.70;;;11.53;;
11982;SDS011;72623;51.184;7.176;2024-03-08T00:04:09;17.63;;;11.63;;
11982;SDS011;72623;51.184;7.176;2024-03-08T00:06:36;18.60;;;11.30;;
11982;SDS011;72623;51.184;7.176;2024-03-08T00:09:04;17.67;;;10.97;;
11982;SDS011;72623;51.184;7.176;2024-03-08T00:11:32;16.03;;;10.77;;
11982;SDS011;72623;51.184;7.176;2024-03-08T00:14:00;19.33;;;12.77;;
11982;SDS011;72623;51.184;7.176;2024-03-08T00:16:32;17.70;;;10.57;;
11982;SDS011;72623;51.184;7.176;2024-03-08T00:19:00;18.70;;;11.10;;
11982;SDS011;72623;51.184;7.176;2024-03-08T00:21:27;20.73;;;11.87;;
11982;SDS011;72623;51.184;7.176;2024-03-08T00:23:55;17.10;;;11.33;;
11982;SDS011;72623;51.184;7.176;2024-03-08T00:26:23;18.30;;;11.40;;
11982;SDS011;72623;51.184;7.176;2024-03-08T00:29:07;19.50;;;11.07;;
11982;SDS011;72623;51.184;7.176;2024-03-08T00:31:43;17.67;;;11.10;;
11982;SDS011;72623;51.184;7.176;2024-03-08T00:34:16;17.03;;;10.90;;
11982;SDS011;72623;51.184;7.176;2024-03-08T00:36:46;18.27;;;11.93;;
11982;SDS011;72623;51.184;7.176;2024-03-08T00:39:28;18.63;;;10.87;;
11982;SDS011;72623;51.184;7.176;2024-03-08T00:42:03;17.17;;;10.90;;
11982;SDS011;72623;51.184;7.176;2024-03-08T00:44:30;18.80;;;10.90;;
11982;SDS011;72623;51.184;7.176;2024-03-08T00:47:00;18.57;;;11.03;;
11982;SDS011;72623;51.184;7.176;2024-03-08T00:49:28;17.67;;;11.10;;
11982;SDS011;72623;51.184;7.176;2024-03-08T00:51:55;20.20;;;11.77;;
11982;SDS011;72623;51.184;7.176;2024-03-08T00:54:22;17.83;;;11.23;;
11982;SDS011;72623;51.184;7.176;2024-03-08T00:56:49;20.90;;;11.27;;
11982;SDS011;72623;51.184;7.176;2024-03-08T00:59:16;20.00;;;11.83;;
11982;SDS011;72623;51.184;7.176;2024-03-08T01:01:46;17.37;;;11.37;;
11982;SDS011;72623;51.184;7.176;2024-03-08T01:04:13;21.00;;;11.53;;
11982;SDS011;72623;51.184;7.176;2024-03-08T01:06:42;19.43;;;11.63;;
11982;SDS011;72623;51.184;7.176;2024-03-08T01:09:12;18.40;;;11.37;;
11982;SDS011;72623;51.184;7.176;2024-03-08T01:16:07;22.30;;;11.87;;
11982;SDS011;72623;51.184;7.176;2024-03-08T01:18:06;17.07;;;10.80;;
11982;SDS011;72623;51.184;7.176;2024-03-08T01:20:39;16.50;;;11.23;;
11982;SDS011;72623;51.184;7.176;2024-03-08T01:23:25;18.07;;;10.97;;
11982;SDS011;72623;51.184;7.176;2024-03-08T01:26:05;20.40;;;11.23;;
11982;SDS011;72623;51.184;7.176;2024-03-08T01:28:48;20.73;;;12.47;;
11982;SDS011;72623;51.184;7.176;2024-03-08T01:31:36;17.47;;;11.50;;
11982;SDS011;72623;51.184;7.176;2024-03-08T01:37:02;20.40;;;12.17;;
11982;SDS011;72623;51.184;7.176;2024-03-08T01:39:35;21.20;;;11.93;;
11982;SDS011;72623;51.184;7.176;2024-03-08T01:42:02;18.43;;;11.90;;
11982;SDS011;72623;51.184;7.176;2024-03-08T01:44:31;20.80;;;12.53;;
11982;SDS011;72623;51.184;7.176;2024-03-08T01:47:00;17.37;;;11.27;;
11982;SDS011;72623;51.184;7.176;2024-03-08T01:49:31;18.23;;;11.07;;
11982;SDS011;72623;51.184;7.176;2024-03-08T01:52:00;15.83;;;11.07;;
11982;SDS011;72623;51.184;7.176;2024-03-08T01:54:27;19.23;;;12.63;;
11982;SDS011;72623;51.184;7.176;2024-03-08T01:56:56;20.13;;;12.17;;
11982;SDS011;72623;51.184;7.176;2024-03-08T01:59:23;20.00;;;11.97;;
11982;SDS011;72623;51.184;7.176;2024-03-08T02:01:56;22.70;;;11.97;;
11982;SDS011;72623;51.184;7.176;2024-03-08T02:04:28;18.87;;;11.03;;
11982;SDS011;72623;51.184;7.176;2024-03-08T02:06:58;22.13;;;12.47;;
11982;SDS011;72623;51.184;7.176;2024-03-08T02:09:25;19.03;;;11.90;;
11982;SDS011;72623;51.184;7.176;2024-03-08T02:11:52;21.13;;;12.83;;
11982;SDS011;72623;51.184;7.176;2024-03-08T02:14:19;20.87;;;11.67;;
11982;SDS011;72623;51.184;7.176;2024-03-08T02:16:46;19.13;;;11.47;;
11982;SDS011;72623;51.184;7.176;2024-03-08T02:19:19;16.70;;;12.07;;
11982;SDS011;72623;51.184;7.176;2024-03-08T02:21:51;18.10;;;11.63;;
11982;SDS011;72623;51.184;7.176;2024-03-08T02:24:18;16.60;;;10.97;;
11982;SDS011;72623;51.184;7.176;2024-03-08T02:26:44;22.20;;;10.93;;
11982;SDS011;72623;51.184;7.176;2024-03-08T02:29:11;18.83;;;11.33;;
11982;SDS011;72623;51.184;7.176;2024-03-08T02:31:39;18.80;;;12.33;;
11982;SDS011;72623;51.184;7.176;2024-03-08T02:34:12;20.53;;;11.93;;
11982;SDS011;72623;51.184;7.176;2024-03-08T02:37:00;18.07;;;12.00;;
11982;SDS011;72623;51.184;7.176;2024-03-08T02:39:33;19.77;;;12.93;;
11982;SDS011;72623;51.184;7.176;2024-03-08T02:42:09;18.40;;;11.57;;
11982;SDS011;72623;51.184;7.176;2024-03-08T02:44:35;20.70;;;12.27;;
11982;SDS011;72623;51.184;7.176;2024-03-08T02:47:02;23.13;;;13.07;;
11982;SDS011;72623;51.184;7.176;2024-03-08T02:49:32;20.97;;;12.63;;
11982;SDS011;72623;51.184;7.176;2024-03-08T02:51:59;18.40;;;11.37;;
11982;SDS011;72623;51.184;7.176;2024-03-08T02:54:26;17.73;;;11.20;;
11982;SDS011;72623;51.184;7.176;2024-03-08T02:56:53;22.20;;;12.50;;
11982;SDS011;72623;51.184;7.176;2024-03-08T02:59:20;23.73;;;12.63;;
11982;SDS011;72623;51.184;7.176;2024-03-08T03:01:48;24.27;;;12.50;;
11982;SDS011;72623;51.184;7.176;2024-03-08T03:04:15;20.77;;;12.83;;
11982;SDS011;72623;51.184;7.176;2024-03-08T03:06:43;18.33;;;11.33;;
11982;SDS011;72623;51.184;7.176;2024-03-08T03:09:13;19.27;;;12.03;;
11982;SDS011;72623;51.184;7.176;2024-03-08T03:11:43;18.83;;;11.00;;
11982;SDS011;72623;51.184;7.176;2024-03-08T03:14:13;18.87;;;11.70;;
11982;SDS011;72623;51.184;7.176;2024-03-08T03:16:41;18.60;;;11.90;;
11982;SDS011;72623;51.184;7.176;2024-03-08T03:19:08;21.17;;;12.33;;
11982;SDS011;72623;51.184;7.176;2024-03-08T03:21:35;18.37;;;11.93;;
11982;SDS011;72623;51.184;7.176;2024-03-08T03:24:03;18.13;;;11.60;;
11982;SDS011;72623;51.184;7.176;2024-03-08T03:26:35;18.57;;;12.37;;
11982;SDS011;72623;51.184;7.176;2024-03-08T03:29:08;17.83;;;11.33;;
11982;SDS011;72623;51.184;7.176;2024-03-08T03:31:36;22.50;;;12.30;;
11982;SDS011;72623;51.184;7.176;2024-03-08T03:34:03;24.40;;;12.50;;
11982;SDS011;72623;51.184;7.176;2024-03-08T03:36:33;21.00;;;12.60;;
11982;SDS011;72623;51.184;7.176;2024-03-08T03:39:05;20.40;;;12.43;;
11982;SDS011;72623;51.184;7.176;2024-03-08T03:41:40;18.13;;;11.23;;
11982;SDS011;72623;51.184;7.176;2024-03-08T03:44:14;19.77;;;12.03;;
11982;SDS011;72623;51.184;7.176;2024-03-08T03:46:44;18.47;;;11.30;;
11982;SDS011;72623;51.184;7.176;2024-03-08T03:49:10;18.93;;;12.00;;
11982;SDS011;72623;51.184;7.176;2024-03-08T03:51:37;22.10;;;13.17;;
11982;SDS011;72623;51.184;7.176;2024-03-08T03:54:04;19.27;;;12.27;;
11982;SDS011;72623;51.184;7.176;2024-03-08T03:56:31;21.63;;;11.30;;
11982;SDS011;72623;51.184;7.176;2024-03-08T03:58:58;24.33;;;12.70;;
11982;SDS011;72623;51.184;7.176;2024-03-08T04:01:25;18.50;;;11.40;;
11982;SDS011;72623;51.184;7.176;2024-03-08T04:03:53;21.07;;;11.77;;
11982;SDS011;72623;51.184;7.176;2024-03-08T04:06:22;19.67;;;11.57;;
11982;SDS011;72623;51.184;7.176;2024-03-08T04:08:49;21.70;;;12.13;;
11982;SDS011;72623;51.184;7.176;2024-03-08T04:11:16;18.63;;;11.43;;
11982;SDS011;72623;51.184;7.176;2024-03-08T04:13:43;20.07;;;12.17;;
11982;SDS011;72623;51.184;7.176;2024-03-08T04:16:10;19.60;;;11.83;;
11982;SDS011;72623;51.184;7.176;2024-03-08T04:18:37;22.70;;;11.37;;
11982;SDS011;72623;51.184;7.176;2024-03-08T04:21:04;19.07;;;11.57;;
11982;SDS011;72623;51.184;7.176;2024-03-08T04:23:33;18.03;;;11.10;;
11982;SDS011;72623;51.184;7.176;2024-03-08T04:26:01;21.23;;;12.87;;
11982;SDS011;72623;51.184;7.176;2024-03-08T04:28:30;19.60;;;12.10;;
11982;SDS011;72623;51.184;7.176;2024-03-08T04:30:57;20.17;;;12.47;;
11982;SDS011;72623;51.184;7.176;2024-03-08T04:33:25;20.00;;;12.23;;
11982;SDS011;72623;51.184;7.176;2024-03-08T04:35:53;19.40;;;11.63;;
11982;SDS011;72623;51.184;7.176;2024-03-08T04:38:20;19.80;;;11.63;;
11982;SDS011;72623;51.184;7.176;2024-03-08T04:40:47;21.37;;;12.80;;
11982;SDS011;72623;51.184;7.176;2024-03-08T04:43:14;18.77;;;11.53;;
11982;SDS011;72623;51.184;7.176;2024-03-08T04:45:43;19.73;;;12.00;;
11982;SDS011;72623;51.184;7.176;2024-03-08T04:48:10;20.17;;;11.67;;
11982;SDS011;72623;51.184;7.176;2024-03-08T04:50:37;20.67;;;12.17;;
11982;SDS011;72623;51.184;7.176;2024-03-08T04:53:04;23.17;;;13.33;;
11982;SDS011;72623;51.184;7.176;2024-03-08T04:55:33;19.50;;;12.63;;
11982;SDS011;72623;51.184;7.176;2024-03-08T04:58:02;17.37;;;11.50;;
11982;SDS011;72623;51.184;7.176;2024-03-08T05:00:30;19.27;;;11.30;;
11982;SDS011;72623;51.184;7.176;2024-03-08T05:05:37;17.20;;;12.17;;
11982;SDS011;72623;51.184;7.176;2024-03-08T05:08:04;22.87;;;12.90;;
11982;SDS011;72623;51.184;7.176;2024-03-08T05:10:31;20.43;;;11.70;;
11982;SDS011;72623;51.184;7.176;2024-03-08T05:12:58;20.27;;;11.77;;
11982;SDS011;72623;51.184;7.176;2024-03-08T05:15:25;18.73;;;12.00;;
11982;SDS011;72623;51.184;7.176;2024-03-08T05:17:51;20.47;;;12.33;;
11982;SDS011;72623;51.184;7.176;2024-03-08T05:20:18;23.30;;;11.30;;
11982;SDS011;72623;51.184;7.176;2024-03-08T05:22:47;20.80;;;12.43;;
11982;SDS011;72623;51.184;7.176;2024-03-08T05:25:16;19.20;;;12.20;;
11982;SDS011;72623;51.184;7.176;2024-03-08T05:27:42;22.83;;;12.63;;
11982;SDS011;72623;51.184;7.176;2024-03-08T05:30:09;19.17;;;12.57;;
11982;SDS011;72623;51.184;7.176;2024-03-08T05:32:40;22.93;;;13.03;;
11982;SDS011;72623;51.184;7.176;2024-03-08T05:35:09;22.07;;;12.87;;
11982;SDS011;72623;51.184;7.176;2024-03-08T05:37:37;21.60;;;12.80;;
11982;SDS011;72623;51.184;7.176;2024-03-08T05:40:05;20.30;;;12.37;;
11982;SDS011;72623;51.184;7.176;2024-03-08T05:45:16;24.07;;;12.27;;
11982;SDS011;72623;51.184;7.176;2024-03-08T05:47:43;20.93;;;12.60;;
11982;SDS011;72623;51.184;7.176;2024-03-08T05:50:11;21.07;;;12.60;;
11982;SDS011;72623;51.184;7.176;2024-03-08T05:52:40;21.17;;;11.53;;
11982;SDS011;72623;51.184;7.176;2024-03-08T05:55:07;21.17;;;12.20;;
11982;SDS011;72623;51.184;7.176;2024-03-08T05:57:35;21.67;;;12.50;;
11982;SDS011;72623;51.184;7.176;2024-03-08T06:00:05;18.40;;;11.83;;
11982;SDS011;72623;51.184;7.176;2024-03-08T06:02:32;22.10;;;12.97;;
11982;SDS011;72623;51.184;7.176;2024-03-08T06:04:59;24.43;;;12.63;;
11982;SDS011;72623;51.184;7.176;2024-03-08T06:07:27;21.30;;;12.83;;
11982;SDS011;72623;51.184;7.176;2024-03-08T06:09:55;25.77;;;13.27;;
11982;SDS011;72623;51.184;7.176;2024-03-08T06:12:21;22.03;;;12.53;;
11982;SDS011;72623;51.184;7.176;2024-03-08T06:14:53;21.67;;;12.10;;
11982;SDS011;72623;51.184;7.176;2024-03-08T06:17:20;21.70;;;12.90;;
11982;SDS011;72623;51.184;7.176;2024-03-08T06:19:52;23.63;;;12.40;;
11982;SDS011;72623;51.184;7.176;2024-03-08T06:22:19;22.70;;;12.47;;
11982;SDS011;72623;51.184;7.176;2024-03-08T06:24:46;22.77;;;12.73;;
11982;SDS011;72623;51.184;7.176;2024-03-08T06:27:13;19.47;;;11.77;;
11982;SDS011;72623;51.184;7.176;2024-03-08T06:29:40;21.90;;;13.20;;
11982;SDS011;72623;51.184;7.176;2024-03-08T06:32:07;21.83;;;12.97;;
11982;SDS011;72623;51.184;7.176;2024-03-08T06:34:34;21.33;;;13.17;;
11982;SDS011;72623;51.184;7.176;2024-03-08T06:37:01;23.40;;;13.27;;
11982;SDS011;72623;51.184;7.176;2024-03-08T06:39:27;22.93;;;12.47;;
11982;SDS011;72623;51.184;7.176;2024-03-08T06:41:56;26.87;;;13.40;;
11982;SDS011;72623;51.184;7.176;2024-03-08T06:44:24;22.37;;;12.80;;
11982;SDS011;72623;51.184;7.176;2024-03-08T06:46:52;22.20;;;13.63;;
11982;SDS011;72623;51.184;7.176;2024-03-08T06:49:18;19.77;;;12.17;;
11982;SDS011;72623;51.184;7.176;2024-03-08T06:51:45;21.97;;;13.23;;
11982;SDS011;72623;51.184;7.176;2024-03-08T06:54:12;19.43;;;12.60;;
11982;SDS011;72623;51.184;7.176;2024-03-08T06:56:39;21.57;;;12.20;;
11982;SDS011;72623;51.184;7.176;2024-03-08T07:02:05;21.33;;;12.47;;
11982;SDS011;72623;51.184;7.176;2024-03-08T07:04:34;23.33;;;13.07;;
11982;SDS011;72623;51.184;7.176;2024-03-08T07:07:05;21.87;;;13.37;;
11982;SDS011;72623;51.184;7.176;2024-03-08T07:09:34;22.40;;;12.70;;
11982;SDS011;72623;51.184;7.176;2024-03-08T07:12:02;19.50;;;12.37;;
11982;SDS011;72623;51.184;7.176;2024-03-08T07:14:29;20.87;;;12.23;;
11982;SDS011;72623;51.184;7.176;2024-03-08T07:16:56;20.80;;;12.30;;
11982;SDS011;72623;51.184;7.176;2024-03-08T07:19:23;22.60;;;12.97;;
11982;SDS011;72623;51.184;7.176;2024-03-08T07:21:49;21.80;;;12.80;;
11982;SDS011;72623;51.184;7.176;2024-03-08T07:24:16;24.83;;;12.93;;
11982;SDS011;72623;51.184;7.176;2024-03-08T07:27:04;19.37;;;12.27;;
11982;SDS011;72623;51.184;7.176;2024-03-08T07:29:31;21.73;;;12.70;;
11982;SDS011;72623;51.184;7.176;2024-03-08T07:31:58;20.00;;;12.40;;
11982;SDS011;72623;51.184;7.176;2024-03-08T07:34:37;21.80;;;12.50;;
11982;SDS011;72623;51.184;7.176;2024-03-08T07:37:12;22.03;;;13.20;;
11982;SDS011;72623;51.184;7.176;2024-03-08T07:39:39;17.90;;;11.23;;
11982;SDS011;72623;51.184;7.176;2024-03-08T07:42:05;22.27;;;13.10;;
11982;SDS011;72623;51.184;7.176;2024-03-08T07:44:32;23.13;;;12.70;;
11982;SDS011;72623;51.184;7.176;2024-03-08T07:46:59;16.63;;;11.27;;
11982;SDS011;72623;51.184;7.176;2024-03-08T07:49:26;25.07;;;13.00;;
11982;SDS011;72623;51.184;7.176;2024-03-08T07:51:53;19.60;;;12.03;;
11982;SDS011;72623;51.184;7.176;2024-03-08T07:54:19;19.63;;;12.17;;
11982;SDS011;72623;51.184;7.176;2024-03-08T07:56:46;19.70;;;12.10;;
11982;SDS011;72623;51.184;7.176;2024-03-08T07:59:13;20.43;;;13.03;;
11982;SDS011;72623;51.184;7.176;2024-03-08T08:01:40;21.03;;;12.20;;
11982;SDS011;72623;51.184;7.176;2024-03-08T08:04:06;19.80;;;12.63;;
11982;SDS011;72623;51.184;7.176;2024-03-08T08:06:37;21.67;;;13.17;;
11982;SDS011;72623;51.184;7.176;2024-03-08T08:09:06;21.40;;;12.43;;
11982;SDS011;72623;51.184;7.176;2024-03-08T08:11:39;23.87;;;12.73;;
11982;SDS011;72623;51.184;7.176;2024-03-08T08:14:09;23.70;;;11.97;;
11982;SDS011;72623;51.184;7.176;2024-03-08T08:16:36;19.83;;;12.30;;
11982;SDS011;72623;51.184;7.176;2024-03-08T08:19:06;19.13;;;12.80;;
11982;SDS011;72623;51.184;7.176;2024-03-08T08:21:36;18.60;;;11.90;;
11982;SDS011;72623;51.184;7.176;2024-03-08T08:24:03;21.47;;;12.97;;
11982;SDS011;72623;51.184;7.176;2024-03-08T08:26:31;20.00;;;12.20;;
11982;SDS011;72623;51.184;7.176;2024-03-08T08:29:01;18.03;;;11.43;;
11982;SDS011;72623;51.184;7.176;2024-03-08T08:31:28;18.17;;;11.33;;
11982;SDS011;72623;51.184;7.176;2024-03-08T08:33:55;17.33;;;11.83;;
11982;SDS011;72623;51.184;7.176;2024-03-08T08:36:24;19.37;;;12.40;;
11982;SDS011;72623;51.184;7.176;2024-03-08T08:38:53;21.60;;;11.87;;
11982;SDS011;72623;51.184;7.176;2024-03-08T08:41:21;17.47;;;10.50;;
11982;SDS011;72623;51.184;7.176;2024-03-08T08:43:48;18.00;;;11.57;;
11982;SDS011;72623;51.184;7.176;2024-03-08T08:46:18;17.83;;;11.77;;
11982;SDS011;72623;51.184;7.176;2024-03-08T08:48:46;17.83;;;11.87;;
11982;SDS011;72623;51.184;7.176;2024-03-08T08:51:13;17.13;;;11.37;;
11982;SDS011;72623;51.184;7.176;2024-03-08T08:53:40;17.43;;;11.43;;
11982;SDS011;72623;51.184;7.176;2024-03-08T08:56:11;16.60;;;11.20;;
11982;SDS011;72623;51.184;7.176;2024-03-08T08:58:39;19.37;;;12.63;;
11982;SDS011;72623;51.184;7.176;2024-03-08T09:01:07;16.23;;;11.43;;
11982;SDS011;72623;51.184;7.176;2024-03-08T09:03:37;16.80;;;11.53;;
11982;SDS011;72623;51.184;7.176;2024-03-08T09:06:05;17.63;;;12.57;;
11982;SDS011;72623;51.184;7.176;2024-03-08T09:08:35;17.50;;;11.77;;
11982;SDS011;72623;51.184;7.176;2024-03-08T09:11:04;18.80;;;11.90;;
11982;SDS011;72623;51.184;7.176;2024-03-08T09:13:32;17.10;;;11.90;;
11982;SDS011;72623;51.184;7.176;2024-03-08T09:15:59;16.23;;;10.93;;
11982;SDS011;72623;51.184;7.176;2024-03-08T09:18:26;19.97;;;10.63;;
11982;SDS011;72623;51.184;7.176;2024-03-08T09:20:53;16.03;;;11.07;;
11982;SDS011;72623;51.184;7.176;2024-03-08T09:23:20;17.73;;;11.53;;
11982;SDS011;72623;51.184;7.176;2024-03-08T09:25:46;16.30;;;11.07;;
11982;SDS011;72623;51.184;7.176;2024-03-08T09:28:14;15.50;;;10.37;;
11982;SDS011;72623;51.184;7.176;2024-03-08T09:30:41;16.00;;;10.90;;
11982;SDS011;72623;51.184;7.176;2024-03-08T09:33:09;17.43;;;10.03;;
11982;SDS011;72623;51.184;7.176;2024-03-08T09:35:36;23.37;;;11.03;;
11982;SDS011;72623;51.184;7.176;2024-03-08T09:38:03;16.10;;;10.60;;
11982;SDS011;72623;51.184;7.176;2024-03-08T09:40:30;15.50;;;10.53;;
11982;SDS011;72623;51.184;7.176;2024-03-08T09:42:57;16.00;;;9.83;;
11982;SDS011;72623;51.184;7.176;2024-03-08T09:45:24;14.23;;;9.57;;
11982;SDS011;72623;51.184;7.176;2024-03-08T09:47:52;19.77;;;10.37;;
11982;SDS011;72623;51.184;7.176;2024-03-08T09:50:19;13.73;;;10.23;;
11982;SDS011;72623;51.184;7.176;2024-03-08T09:52:47;15.73;;;10.00;;
11982;SDS011;72623;51.184;7.176;2024-03-08T09:55:15;17.27;;;9.70;;
11982;SDS011;72623;51.184;7.176;2024-03-08T09:57:47;15.47;;;9.93;;
11982;SDS011;72623;51.184;7.176;2024-03-08T10:00:28;16.47;;;9.33;;
11982;SDS011;72623;51.184;7.176;2024-03-08T10:02:59;13.60;;;9.20;;
11982;SDS011;72623;51.184;7.176;2024-03-08T10:05:27;15.70;;;8.63;;
11982;SDS011;72623;51.184;7.176;2024-03-08T10:07:54;14.70;;;9.07;;
11982;SDS011;72623;51.184;7.176;2024-03-08T10:10:21;14.10;;;9.43;;
11982;SDS011;72623;51.184;7.176;2024-03-08T10:12:48;14.43;;;9.50;;
11982;SDS011;72623;51.184;7.176;2024-03-08T10:15:15;13.67;;;8.30;;
11982;SDS011;72623;51.184;7.176;2024-03-08T10:17:42;13.23;;;9.03;;
11982;SDS011;72623;51.184;7.176;2024-03-08T10:20:15;12.37;;;8.43;;
11982;SDS011;72623;51.184;7.176;2024-03-08T10:22:45;12.37;;;8.43;;
11982;SDS011;72623;51.184;7.176;2024-03-08T10:25:13;15.27;;;8.50;;
11982;SDS011;72623;51.184;7.176;2024-03-08T10:27:40;11.63;;;7.83;;
11982;SDS011;72623;51.184;7.176;2024-03-08T10:30:11;13.90;;;9.07;;
11982;SDS011;72623;51.184;7.176;2024-03-08T10:32:41;14.00;;;9.10;;
11982;SDS011;72623;51.184;7.176;2024-03-08T10:35:08;12.47;;;7.87;;
11982;SDS011;72623;51.184;7.176;2024-03-08T10:37:44;11.43;;;8.10;;
11982;SDS011;72623;51.184;7.176;2024-03-08T10:40:15;10.83;;;8.00;;
11982;SDS011;72623;51.184;7.176;2024-03-08T10:42:53;12.30;;;8.33;;
11982;SDS011;72623;51.184;7.176;2024-03-08T10:45:31;11.20;;;8.57;;
11982;SDS011;72623;51.184;7.176;2024-03-08T10:51:00;10.87;;;7.50;;
11982;SDS011;72623;51.184;7.176;2024-03-08T10:53:29;10.57;;;7.47;;
11982;SDS011;72623;51.184;7.176;2024-03-08T10:55:56;13.33;;;8.00;;
11982;SDS011;72623;51.184;7.176;2024-03-08T10:58:28;11.60;;;8.13;;
11982;SDS011;72623;51.184;7.176;2024-03-08T11:00:57;12.40;;;7.90;;
11982;SDS011;72623;51.184;7.176;2024-03-08T11:06:17;11.00;;;7.30;;
11982;SDS011;72623;51.184;7.176;2024-03-08T11:12:40;12.40;;;7.47;;
11982;SDS011;72623;51.184;7.176;2024-03-08T11:14:45;15.17;;;8.13;;
11982;SDS011;72623;51.184;7.176;2024-03-08T11:17:15;17.30;;;7.90;;
11982;SDS011;72623;51.184;7.176;2024-03-08T11:19:49;12.33;;;8.27;;
11982;SDS011;72623;51.184;7.176;2024-03-08T11:22:20;12.13;;;8.13;;
11982;SDS011;72623;51.184;7.176;2024-03-08T11:24:49;13.70;;;7.77;;
11982;SDS011;72623;51.184;7.176;2024-03-08T11:27:16;10.90;;;8.07;;
11982;SDS011;72623;51.184;7.176;2024-03-08T11:32:36;10.20;;;7.10;;
11982;SDS011;72623;51.184;7.176;2024-03-08T11:35:07;13.30;;;7.03;;
11982;SDS011;72623;51.184;7.176;2024-03-08T11:37:48;10.40;;;7.30;;
11982;SDS011;72623;51.184;7.176;2024-03-08T11:40:15;13.57;;;7.53;;
11982;SDS011;72623;51.184;7.176;2024-03-08T11:42:47;12.27;;;7.37;;
11982;SDS011;72623;51.184;7.176;2024-03-08T11:45:16;10.00;;;7.53;;
11982;SDS011;72623;51.184;7.176;2024-03-08T11:47:46;12.70;;;7.30;;
11982;SDS011;72623;51.184;7.176;2024-03-08T11:50:13;11.47;;;7.67;;
11982;SDS011;72623;51.184;7.176;2024-03-08T11:52:40;11.53;;;7.50;;
11982;SDS011;72623;51.184;7.176;2024-03-08T11:55:09;11.43;;;7.77;;
11982;SDS011;72623;51.184;7.176;2024-03-08T11:57:37;9.30;;;7.13;;
11982;SDS011;72623;51.184;7.176;2024-03-08T12:00:04;10.70;;;7.63;;
11982;SDS011;72623;51.184;7.176;2024-03-08T12:02:32;9.77;;;7.00;;
11982;SDS011;72623;51.184;7.176;2024-03-08T12:05:03;10.37;;;7.37;;
11982;SDS011;72623;51.184;7.176;2024-03-08T12:07:34;12.47;;;7.10;;
11982;SDS011;72623;51.184;7.176;2024-03-08T12:10:17;10.10;;;7.13;;
11982;SDS011;72623;51.184;7.176;2024-03-08T12:12:47;10.77;;;7.20;;
11982;SDS011;72623;51.184;7.176;2024-03-08T12:15:16;13.23;;;8.53;;
11982;SDS011;72623;51.184;7.176;2024-03-08T12:17:45;8.67;;;6.57;;
11982;SDS011;72623;51.184;7.176;2024-03-08T12:20:23;7.57;;;5.63;;
11982;SDS011;72623;51.184;7.176;2024-03-08T12:22:55;12.20;;;7.03;;
11982;SDS011;72623;51.184;7.176;2024-03-08T12:25:22;10.20;;;6.30;;
11982;SDS011;72623;51.184;7.176;2024-03-08T12:28:09;8.17;;;5.70;;
11982;SDS011;72623;51.184;7.176;2024-03-08T12:30:44;10.23;;;6.67;;
11982;SDS011;72623;51.184;7.176;2024-03-08T12:33:13;9.97;;;7.00;;
11982;SDS011;72623;51.184;7.176;2024-03-08T12:35:40;9.93;;;6.47;;
11982;SDS011;72623;51.184;7.176;2024-03-08T12:38:07;10.90;;;6.23;;
11982;SDS011;72623;51.184;7.176;2024-03-08T12:40:34;9.70;;;6.10;;
11982;SDS011;72623;51.184;7.176;2024-03-08T12:43:05;8.97;;;5.60;;
11982;SDS011;72623;51.184;7.176;2024-03-08T12:45:32;9.50;;;6.23;;
11982;SDS011;72623;51.184;7.176;2024-03-08T12:47:59;7.87;;;6.07;;
11982;SDS011;72623;51.184;7.176;2024-03-08T12:50:28;10.60;;;5.83;;
11982;SDS011;72623;51.184;7.176;2024-03-08T12:52:55;9.00;;;6.13;;
11982;SDS011;72623;51.184;7.176;2024-03-08T12:55:22;7.60;;;5.70;;
11982;SDS011;72623;51.184;7.176;2024-03-08T12:57:48;8.40;;;6.00;;
11982;SDS011;72623;51.184;7.176;2024-03-08T13:00:18;10.40;;;5.67;;
11982;SDS011;72623;51.184;7.176;2024-03-08T13:02:55;9.57;;;5.57;;
11982;SDS011;72623;51.184;7.176;2024-03-08T13:05:25;8.00;;;5.37;;
11982;SDS011;72623;51.184;7.176;2024-03-08T13:07:52;7.03;;;5.13;;
11982;SDS011;72623;51.184;7.176;2024-03-08T13:10:19;9.80;;;5.77;;
11982;SDS011;72623;51.184;7.176;2024-03-08T13:12:48;9.57;;;6.13;;
11982;SDS011;72623;51.184;7.176;2024-03-08T13:15:14;9.90;;;5.93;;
11982;SDS011;72623;51.184;7.176;2024-03-08T13:17:47;9.00;;;6.23;;
11982;SDS011;72623;51.184;7.176;2024-03-08T13:20:14;8.83;;;6.03;;
11982;SDS011;72623;51.184;7.176;2024-03-08T13:22:44;9.60;;;6.33;;
11982;SDS011;72623;51.184;7.176;2024-03-08T13:25:12;11.70;;;5.87;;
11982;SDS011;72623;51.184;7.176;2024-03-08T13:27:42;9.10;;;6.07;;
11982;SDS011;72623;51.184;7.176;2024-03-08T13:30:10;10.17;;;6.27;;
11982;SDS011;72623;51.184;7.176;2024-03-08T13:32:42;11.10;;;6.43;;
11982;SDS011;72623;51.184;7.176;2024-03-08T13:35:09;9.93;;;6.90;;
11982;SDS011;72623;51.184;7.176;2024-03-08T13:37:41;9.57;;;6.20;;
11982;SDS011;72623;51.184;7.176;2024-03-08T13:40:09;10.10;;;6.73;;
11982;SDS011;72623;51.184;7.176;2024-03-08T13:42:39;9.07;;;6.17;;
11982;SDS011;72623;51.184;7.176;2024-03-08T13:45:09;9.93;;;6.70;;
11982;SDS011;72623;51.184;7.176;2024-03-08T13:47:39;9.00;;;6.73;;
11982;SDS011;72623;51.184;7.176;2024-03-08T13:50:08;10.67;;;7.20;;
11982;SDS011;72623;51.184;7.176;2024-03-08T13:52:37;12.60;;;7.60;;
11982;SDS011;72623;51.184;7.176;2024-03-08T13:55:05;11.23;;;7.03;;
11982;SDS011;72623;51.184;7.176;2024-03-08T13:57:32;11.87;;;7.07;;
11982;SDS011;72623;51.184;7.176;2024-03-08T14:07:24;11.27;;;6.93;;
11982;SDS011;72623;51.184;7.176;2024-03-08T14:10:31;11.07;;;7.77;;
11982;SDS011;72623;51.184;7.176;2024-03-08T14:13:07;11.93;;;7.03;;
11982;SDS011;72623;51.184;7.176;2024-03-08T14:23:13;11.23;;;7.63;;
11982;SDS011;72623;51.184;7.176;2024-03-08T14:26:16;13.00;;;8.00;;
11982;SDS011;72623;51.184;7.176;2024-03-08T14:32:11;12.73;;;8.27;;
11982;SDS011;72623;51.184;7.176;2024-03-08T14:41:35;15.23;;;7.80;;
11982;SDS011;72623;51.184;7.176;2024-03-08T14:46:57;11.40;;;7.87;;
11982;SDS011;72623;51.184;7.176;2024-03-08T14:49:24;12.63;;;8.70;;
11982;SDS011;72623;51.184;7.176;2024-03-08T14:51:54;11.80;;;8.30;;
11982;SDS011;72623;51.184;7.176;2024-03-08T14:54:23;14.30;;;8.53;;
11982;SDS011;72623;51.184;7.176;2024-03-08T14:56:50;13.67;;;8.87;;
11982;SDS011;72623;51.184;7.176;2024-03-08T14:59:17;13.53;;;9.63;;
11982;SDS011;72623;51.184;7.176;2024-03-08T15:01:45;13.70;;;8.60;;
11982;SDS011;72623;51.184;7.176;2024-03-08T15:04:12;12.47;;;8.93;;
11982;SDS011;72623;51.184;7.176;2024-03-08T15:06:40;14.27;;;8.60;;
11982;SDS011;72623;51.184;7.176;2024-03-08T15:09:08;11.43;;;7.60;;
11982;SDS011;72623;51.184;7.176;2024-03-08T15:11:44;13.47;;;8.17;;
11982;SDS011;72623;51.184;7.176;2024-03-08T15:14:14;11.47;;;8.20;;
11982;SDS011;72623;51.184;7.176;2024-03-08T15:16:44;13.03;;;7.63;;
11982;SDS011;72623;51.184;7.176;2024-03-08T15:19:12;10.97;;;8.00;;
11982;SDS011;72623;51.184;7.176;2024-03-08T15:21:40;13.17;;;8.63;;
11982;SDS011;72623;51.184;7.176;2024-03-08T15:24:08;14.43;;;8.27;;
11982;SDS011;72623;51.184;7.176;2024-03-08T15:26:40;14.40;;;8.80;;
11982;SDS011;72623;51.184;7.176;2024-03-08T15:29:08;13.63;;;8.03;;
11982;SDS011;72623;51.184;7.176;2024-03-08T15:31:37;12.87;;;8.73;;
11982;SDS011;72623;51.184;7.176;2024-03-08T15:34:37;16.20;;;8.93;;